Time;durP1;ratioP1;P1;durP2;ratioP2;P2;SDS_P1;SDS_P2;PMS_P1;PMS_P2;Temp;Humidity;BMP_temperature;BMP_pressure;BME280_temperature;BME280_humidity;BME280_pressure;Samples;Min_cycle;Max_cycle;Signal;HPM_P1;HPM_P2
2022/01/02 01:25:15;;;;;;;;;;;;;;;;;;;;;
2022/01/02 04:05:42;;;;;;;;;;;10.90;99.90;;;;;;6194911;23;19913;-93
2022/01/02 04:26:15;;;;;;;;;;;;;;;;;;;;;
2022/01/02 06:54:37;;;;;;;;;;;;;;;;;;;;;
2022/01/02 07:51:20;;;;;;;;;;;;;;;;;;;;;
2022/01/02 09:05:12;;;;;;;;;;;;;;;;;;;;;
2022/01/02 09:08:07;;;;;;;;;;;;;;;;;;;;;
2022/01/02 09:11:11;;;;;;;;;;;10.90;99.90;;;;;;6133615;23;19921;-92
2022/01/02 09:14:07;;;;;;;;;;;;;;;;;;;;;
2022/01/02 09:19:51;;;;;;;;;;;;;;;;;;;;;
2022/01/02 09:26:08;;;;;;;;;;;;;;;;;;;;;
2022/01/02 09:28:50;;;;;;;;;;;;;;;;;;;;;
2022/01/02 10:13:11;;;;;;;;;;;;;;;;;;;;;
2022/01/02 10:16:39;;;;;;;;;;;10.30;99.90;;;;;;6155163;23;19915;-92
2022/01/02 11:54:08;;;;;;;;;;;;;;;;;;;;;
2022/01/02 12:01:26;;;;;;;;;;;;;;;;;;;;;
2022/01/02 12:36:07;;;;;;;;;;;10.90;99.90;;;;;;5911798;24;19944;-92
2022/01/02 12:41:50;;;;;;;;;;;;;;;;;;;;;
2022/01/02 12:52:08;;;;;;;;;;;;;;;;;;;;;
2022/01/02 13:01:39;;;;;;;;;;;;;;;;;;;;;
2022/01/02 13:04:28;;;;;;;;;;;;;;;;;;;;;
2022/01/02 13:56:31;;;;;;;;;;;10.20;99.90;;;;;;6154446;23;19949;-94
2022/01/02 21:07:22;;;;;;;;;;;;;;;;;;;;;
2022/01/02 21:16:18;;;;;;;;;;;9.50;99.90;;;;;;6301014;22;19918;-92
2022/01/02 21:18:46;;;;;;;;;;;10.10;99.90;;;;;;6284934;22;19915;-90
2022/01/02 21:21:14;;;;;;;;;;;9.50;99.90;;;;;;6258606;22;19922;-89
2022/01/02 21:27:03;;;;;;;;;;;8.90;99.90;;;;;;6271301;22;19946;-91
2022/01/02 21:29:39;;;;;;;;;;;;;;;;;;;;;
2022/01/02 21:32:21;;;;;;;;;;;9.60;99.90;;;;;;6310901;22;19915;-92
2022/01/02 21:35:15;;;;;;;;;;;8.90;99.90;;;;;;6284520;22;19919;-91
2022/01/02 21:37:50;;;;;;;;;;;8.30;99.90;;;;;;6285233;22;19950;-93
2022/01/02 21:40:25;;;;;;;;;;;;;;;;;;;;;
2022/01/02 21:43:22;;;;;;;;;;;8.70;99.90;;;;;;6287058;22;20016;-92
2022/01/02 21:45:50;;;;;;;;;;;8.70;99.90;;;;;;6285798;22;19922;-92
2022/01/02 21:48:36;;;;;;;;;;;;;;;;;;;;;
2022/01/02 21:51:04;;;;;;;;;;;8.50;99.90;;;;;;6287003;22;20334;-92
2022/01/02 21:53:52;;;;;;;;;;;;;;;;;;;;;
2022/01/02 21:56:25;;;;;;;;;;;8.80;99.90;;;;;;6289548;22;19923;-91
2022/01/02 21:58:53;;;;;;;;;;;8.80;99.90;;;;;;6260964;22;19914;-93
2022/01/02 22:01:39;;;;;;;;;;;9.10;99.90;;;;;;6259505;22;20265;-92
2022/01/02 22:04:17;;;;;;;;;;;9.30;99.90;;;;;;6311335;22;19922;-93
2022/01/02 22:10:09;;;;;;;;;;;8.80;99.90;;;;;;6294609;22;19919;-92
2022/01/02 22:12:44;;;;;;;;;;;8.80;99.90;;;;;;6232213;22;19937;-93
2022/01/02 22:15:40;;;;;;;;;;;;;;;;;;;;;
2022/01/02 22:18:31;;;;;;;;;;;8.50;99.90;;;;;;6309716;22;20369;-93
2022/01/02 22:21:27;;;;;;;;;;;;;;;;;;;;;
2022/01/02 22:30:21;;;;;;;;;;;8.30;99.90;;;;;;6167266;23;19920;-92
2022/01/02 22:33:02;;;;;;;;;;;;;;;;;;;;;
2022/01/02 22:35:42;;;;;;;;;;;;;;;;;;;;;
2022/01/02 22:38:10;;;;;;;;;;;8.10;99.90;;;;;;6259900;22;19922;-91
2022/01/02 22:40:46;;;;;;;;;;;8.60;99.90;;;;;;6231498;22;19915;-94
2022/01/02 22:43:25;;;;;;;;;;;;;;;;;;;;;
2022/01/02 22:50:04;;;;;;;;;;;;;;;;;;;;;
2022/01/02 22:53:07;;;;;;;;;;;;;;;;;;;;;
2022/01/02 22:56:14;;;;;;;;;;;8.40;99.90;;;;;;6281784;22;19923;-91
2022/01/02 22:58:42;;;;;;;;;;;8.20;99.90;;;;;;6256480;22;20354;-90
2022/01/02 23:01:21;;;;;;;;;;;;;;;;;;;;;
2022/01/02 23:03:52;;;;;;;;;;;8.20;99.90;;;;;;6258493;22;19914;-91
2022/01/02 23:06:28;;;;;;;;;;;7.30;99.90;;;;;;6231064;22;19994;-91
2022/01/02 23:09:07;;;;;;;;;;;7.20;99.90;;;;;;6256961;22;19938;-91
2022/01/02 23:12:05;;;;;;;;;;;;;;;;;;;;;
2022/01/02 23:14:35;;;;;;;;;;;7.90;99.90;;;;;;6282441;22;19919;-91
2022/01/02 23:17:00;;;;;;;;;;;6.90;99.90;;;;;;6230133;22;19968;-88
2022/01/02 23:19:29;;;;;;;;;;;7.40;99.90;;;;;;6229628;22;19923;-87
2022/01/02 23:22:00;;;;;;;;;;;7.20;99.90;;;;;;6229351;22;19922;-90
2022/01/02 23:24:26;;;;;;;;;;;7.20;99.90;;;;;;6231099;22;19938;-89
2022/01/02 23:26:51;;;;;;;;;;;7.30;99.90;;;;;;6255032;22;20362;-89
2022/01/02 23:29:17;;;;;;;;;;;7.30;99.90;;;;;;6229637;22;19921;-89
2022/01/02 23:31:42;;;;;;;;;;;7.40;99.90;;;;;;6254339;22;19927;-89
2022/01/02 23:34:08;;;;;;;;;;;7.40;99.90;;;;;;6229841;22;19925;-89
2022/01/02 23:36:33;;;;;;;;;;;7.40;99.90;;;;;;6255134;22;19914;-88
2022/01/02 23:39:00;;;;;;;;;;;7.40;99.90;;;;;;6229563;22;19926;-87
2022/01/02 23:41:25;;;;;;;;;;;7.80;99.90;;;;;;6255027;22;19922;-88
2022/01/02 23:43:51;;;;;;;;;;;8.60;99.90;;;;;;6280236;22;20239;-89
2022/01/02 23:46:18;;;;;;;;;;;7.90;99.90;;;;;;6230232;22;19941;-89
2022/01/02 23:48:47;;;;;;;;;;;7.80;99.90;;;;;;6229471;22;19919;-89
2022/01/02 23:51:13;;;;;;;;;;;7.60;99.90;;;;;;6229319;22;19986;-89
2022/01/02 23:53:39;;;;;;;;;;;7.80;99.90;;;;;;6255152;22;19919;-88
2022/01/02 23:56:08;;;;;;;;;;;7.60;99.90;;;;;;6254679;22;19922;-88
2022/01/02 23:58:34;;;;;;;;;;;7.90;99.90;;;;;;6254931;22;19915;-89
